Time;durP1;ratioP1;P1;durP2;ratioP2;P2;SDS_P1;SDS_P2;PMS_P1;PMS_P2;Temp;Humidity;BMP_temperature;BMP_pressure;BME280_temperature;BME280_humidity;BME280_pressure;Samples;Min_cycle;Max_cycle;Signal;HPM_P1;HPM_P2
2022/03/25 00:00:36;;;;;;;0.40;0.40;;;9.90;99.90;8.90;102792.00;;;;5049621;28;20166;-68
2022/03/25 00:03:13;;;;;;;0.40;0.40;;;9.60;99.90;9.10;102785.00;;;;5034002;28;20201;-68
2022/03/25 00:05:47;;;;;;;1.33;1.33;;;9.50;99.90;9.40;102741.00;;;;5048769;28;20184;-68
2022/03/25 00:08:21;;;;;;;0.40;0.40;;;9.60;99.90;9.00;102774.00;;;;5050734;28;20198;-68
2022/03/25 00:10:55;;;;;;;1.03;1.03;;;9.50;99.90;9.00;102749.00;;;;5050080;28;20183;-68
2022/03/25 00:13:28;;;;;;;0.53;0.53;;;9.50;99.90;9.20;102787.00;;;;5032955;28;20195;-69
2022/03/25 00:16:00;;;;;;;0.40;0.40;;;9.30;99.90;9.20;102783.00;;;;5050496;28;20603;-69
2022/03/25 00:18:32;;;;;;;0.40;0.40;;;9.30;99.90;9.20;102789.00;;;;5050580;28;20634;-68
2022/03/25 00:21:08;;;;;;;2.93;2.83;;;9.30;99.90;9.10;102788.00;;;;5050384;28;20187;-69
2022/03/25 00:23:45;;;;;;;0.40;0.40;;;9.20;99.90;9.10;102790.00;;;;5050386;28;20642;-69
2022/03/25 00:26:19;;;;;;;0.40;0.40;;;9.20;99.90;9.00;102788.00;;;;5050251;28;20175;-68
2022/03/25 00:28:55;;;;;;;0.40;0.40;;;9.20;99.90;8.90;102790.00;;;;5050490;28;20196;-69
2022/03/25 00:31:26;;;;;;;0.40;0.40;;;9.10;99.90;8.80;102785.00;;;;5049929;28;20214;-70
2022/03/25 00:33:52;;;;;;;1.17;1.07;;;9.00;99.90;8.50;102783.00;;;;5033071;28;20183;-71
2022/03/25 00:36:24;;;;;;;0.37;0.37;;;8.90;99.90;8.70;102735.00;;;;5050603;28;20184;-70
2022/03/25 00:38:57;;;;;;;0.40;0.40;;;8.90;99.90;8.70;102785.00;;;;5049345;28;20190;-69
2022/03/25 00:41:34;;;;;;;0.40;0.40;;;8.90;99.90;8.50;102777.00;;;;5049588;28;20183;-69
2022/03/25 00:44:07;;;;;;;2.93;2.10;;;8.80;99.90;9.30;102792.00;;;;5048235;28;20178;-69
2022/03/25 00:46:41;;;;;;;6.30;1.70;;;9.10;99.90;9.60;102789.00;;;;5050177;28;20228;-70
2022/03/25 00:49:12;;;;;;;1.93;1.87;;;9.50;99.90;9.80;102769.00;;;;5049563;28;20818;-70
2022/03/25 00:51:47;;;;;;;4.23;1.33;;;9.70;99.90;9.90;102781.00;;;;5031412;28;20215;-69
2022/03/25 00:54:21;;;;;;;2.93;2.73;;;9.90;99.90;10.00;102783.00;;;;5049199;28;20642;-70
2022/03/25 00:56:52;;;;;;;1.63;1.60;;;10.00;99.90;10.10;102776.00;;;;5049419;28;20507;-69
2022/03/25 00:59:24;;;;;;;4.40;4.00;;;10.10;99.90;10.20;102772.00;;;;5049745;28;20179;-70
2022/03/25 01:02:03;;;;;;;1.97;1.90;;;10.20;99.90;10.30;102730.00;;;;5049404;28;20191;-68
2022/03/25 01:04:37;;;;;;;2.57;2.37;;;10.30;99.90;10.10;102774.00;;;;5049950;28;20645;-68
2022/03/25 01:07:16;;;;;;;0.30;0.30;;;10.30;99.90;9.40;102763.00;;;;5034962;28;20179;-68
2022/03/25 01:09:57;;;;;;;0.30;0.30;;;10.00;99.90;9.00;102763.00;;;;5049784;28;20262;-69
2022/03/25 01:12:34;;;;;;;0.30;0.30;;;9.60;99.90;9.00;102763.00;;;;5049475;28;20230;-67
2022/03/25 01:15:06;;;;;;;0.40;0.40;;;9.40;99.90;8.90;102773.00;;;;5049586;28;20175;-68
2022/03/25 01:17:41;;;;;;;1.50;1.47;;;9.20;99.90;8.60;102772.00;;;;5049000;28;20274;-67
2022/03/25 01:20:20;;;;;;;0.40;0.40;;;9.00;99.90;8.30;102784.00;;;;5034311;28;20636;-68
2022/03/25 01:22:54;;;;;;;1.13;1.13;;;8.80;99.90;8.20;102781.00;;;;5032465;28;20273;-68
2022/03/25 01:25:28;;;;;;;1.17;1.17;;;8.50;99.90;8.40;102787.00;;;;5049271;28;20633;-68
2022/03/25 01:28:02;;;;;;;0.40;0.40;;;8.60;99.90;8.70;102773.00;;;;5048379;28;20190;-68
2022/03/25 01:30:38;;;;;;;1.13;1.03;;;8.70;99.90;8.50;102759.00;;;;5034140;28;20260;-68
2022/03/25 01:33:10;;;;;;;0.30;0.30;;;8.70;99.90;8.30;102781.00;;;;5049043;28;20221;-68
2022/03/25 01:35:50;;;;;;;0.35;0.35;;;8.50;99.90;8.20;102780.00;;;;5048368;28;20428;-68
2022/03/25 01:38:33;;;;;;;0.40;0.40;;;8.40;99.90;8.40;102763.00;;;;5048535;28;20189;-68
2022/03/25 01:41:09;;;;;;;1.17;1.10;;;8.40;99.90;8.30;102758.00;;;;5047499;28;20175;-68
2022/03/25 01:43:46;;;;;;;0.40;0.40;;;8.40;99.90;8.00;102730.00;;;;5048232;28;20280;-68
2022/03/25 01:46:19;;;;;;;1.33;1.23;;;8.40;99.90;8.30;102756.00;;;;5048512;28;20210;-68
2022/03/25 01:48:54;;;;;;;2.00;1.90;;;8.40;99.90;8.30;102725.00;;;;5047255;28;20175;-68
2022/03/25 01:51:43;;;;;;;0.40;0.40;;;8.50;99.90;8.10;102765.00;;;;5047230;28;20685;-68
2022/03/25 01:54:28;;;;;;;2.30;1.50;;;8.60;99.90;8.60;102753.00;;;;5048053;28;20257;-68
2022/03/25 01:57:07;;;;;;;0.40;0.40;;;8.70;99.90;8.50;102749.00;;;;5048364;28;20174;-68
2022/03/25 01:59:41;;;;;;;0.60;0.60;;;8.80;99.90;8.10;102764.00;;;;5049074;28;20232;-68
2022/03/25 02:02:17;;;;;;;3.27;1.70;;;8.60;99.90;9.10;102763.00;;;;5030886;28;20183;-68
2022/03/25 02:04:54;;;;;;;2.93;2.67;;;9.00;99.90;9.30;102762.00;;;;5048487;28;20170;-68
2022/03/25 02:07:29;;;;;;;1.80;1.70;;;9.30;99.90;9.40;102754.00;;;;5032970;28;20213;-69
2022/03/25 02:10:05;;;;;;;1.73;1.67;;;9.40;99.90;9.50;102760.00;;;;5032818;28;20163;-68
2022/03/25 02:12:42;;;;;;;0.80;0.80;;;9.60;99.90;9.10;102755.00;;;;5031511;28;20206;-68
2022/03/25 02:15:23;;;;;;;0.60;0.60;;;9.50;99.90;9.50;102756.00;;;;5032488;28;20183;-68
2022/03/25 02:17:57;;;;;;;1.53;1.43;;;9.60;99.90;9.70;102709.00;;;;5047950;28;20182;-68
2022/03/25 02:20:28;;;;;;;0.43;0.43;;;9.70;99.90;9.50;102750.00;;;;5048115;28;20229;-68
2022/03/25 02:23:01;;;;;;;0.30;0.30;;;9.70;99.90;8.20;102751.00;;;;5032499;28;20190;-68
2022/03/25 02:25:37;;;;;;;0.50;0.50;;;9.20;99.90;8.40;102752.00;;;;5048093;28;20191;-68
2022/03/25 02:28:09;;;;;;;3.80;2.87;;;8.90;99.90;7.90;102750.00;;;;5048217;28;20176;-68
2022/03/25 02:30:40;;;;;;;1.33;1.33;;;8.70;99.90;7.50;102700.00;;;;5047880;28;20186;-68
2022/03/25 02:33:16;;;;;;;0.30;0.30;;;8.30;99.90;7.60;102740.00;;;;5046973;28;20308;-68
2022/03/25 02:35:52;;;;;;;0.30;0.30;;;8.10;99.90;7.40;102753.00;;;;5048361;28;20217;-67
2022/03/25 02:38:26;;;;;;;0.30;0.30;;;8.00;99.90;7.40;102746.00;;;;5015146;28;20189;-68
2022/03/25 02:41:01;;;;;;;2.40;2.30;;;7.80;99.90;7.80;102762.00;;;;5047319;28;20185;-69
2022/03/25 02:43:32;;;;;;;0.30;0.30;;;7.90;99.90;7.70;102759.00;;;;5031796;28;20638;-68
2022/03/25 02:46:06;;;;;;;3.70;3.50;;;7.90;99.90;7.30;102768.00;;;;5048516;28;20237;-68
2022/03/25 02:48:40;;;;;;;0.30;0.30;;;7.80;99.90;7.50;102766.00;;;;5047752;28;20613;-68
2022/03/25 02:51:11;;;;;;;0.60;0.60;;;7.70;99.90;7.70;102727.00;;;;5047231;28;20640;-68
2022/03/25 02:53:44;;;;;;;0.30;0.30;;;7.80;99.90;7.40;102749.00;;;;5048518;28;20188;-68
2022/03/25 02:56:18;;;;;;;0.30;0.30;;;7.80;99.90;7.40;102762.00;;;;5048303;28;20194;-68
2022/03/25 02:58:56;;;;;;;0.30;0.30;;;7.70;99.90;7.00;102756.00;;;;5032343;28;20183;-68
2022/03/25 03:01:25;;;;;;;1.90;1.83;;;7.50;99.90;7.00;102764.00;;;;5047217;28;20189;-70
2022/03/25 03:03:58;;;;;;;1.23;1.23;;;7.50;99.90;7.40;102774.00;;;;5048077;28;20181;-69
2022/03/25 03:06:29;;;;;;;0.30;0.30;;;7.60;99.90;7.20;102771.00;;;;5047967;28;20182;-69
2022/03/25 03:08:58;;;;;;;0.43;0.43;;;7.50;99.90;7.30;102728.00;;;;5032074;28;20620;-69
2022/03/25 03:11:32;;;;;;;0.30;0.30;;;7.50;99.90;7.30;102768.00;;;;5047617;28;20205;-68
2022/03/25 03:14:04;;;;;;;0.30;0.30;;;7.50;99.90;7.20;102767.00;;;;5045798;28;20263;-68
2022/03/25 03:16:33;;;;;;;0.80;0.80;;;7.60;99.90;7.30;102776.00;;;;5030680;28;20289;-68
2022/03/25 03:19:03;;;;;;;0.30;0.30;;;7.50;99.90;7.30;102765.00;;;;5050191;28;20181;-68
2022/03/25 03:21:40;;;;;;;0.60;0.60;;;7.50;99.90;7.40;102764.00;;;;5034345;28;20272;-68
2022/03/25 03:24:18;;;;;;;1.00;1.00;;;7.50;99.90;6.80;102764.00;;;;5034214;28;20192;-68
2022/03/25 03:26:52;;;;;;;0.30;0.30;;;7.40;99.90;6.80;102768.00;;;;5050346;28;20597;-68
2022/03/25 03:29:24;;;;;;;0.50;0.50;;;7.30;99.90;6.80;102751.00;;;;5050039;28;20169;-68
2022/03/25 03:31:59;;;;;;;0.30;0.30;;;7.20;99.90;7.10;102723.00;;;;5049356;28;20266;-68
2022/03/25 03:34:34;;;;;;;3.67;3.37;;;7.20;99.90;7.30;102762.00;;;;5050329;28;20184;-68
2022/03/25 03:37:06;;;;;;;0.63;0.63;;;7.50;99.90;8.00;102762.00;;;;5050985;28;20185;-68
2022/03/25 03:39:41;;;;;;;0.33;0.33;;;7.80;99.90;7.80;102763.00;;;;5051298;28;20185;-68
2022/03/25 03:42:17;;;;;;;0.50;0.50;;;8.10;99.90;7.30;102765.00;;;;5050456;28;20184;-68
2022/03/25 03:44:53;;;;;;;2.83;1.33;;;7.80;99.90;7.10;102755.00;;;;5049547;28;20197;-68
2022/03/25 03:47:29;;;;;;;0.70;0.70;;;7.70;99.90;6.80;102709.00;;;;5050989;28;20184;-68
2022/03/25 03:50:03;;;;;;;1.80;1.70;;;7.50;99.90;7.00;102767.00;;;;5034886;28;20580;-68
2022/03/25 03:52:42;;;;;;;0.70;0.70;;;7.30;99.90;6.60;102768.00;;;;5050131;28;20298;-69
2022/03/25 03:55:17;;;;;;;0.30;0.30;;;7.20;99.90;7.00;102767.00;;;;5050966;28;20180;-68
2022/03/25 03:57:51;;;;;;;1.77;1.77;;;7.20;99.90;6.80;102758.00;;;;5051116;28;20180;-69
2022/03/25 04:00:25;;;;;;;0.40;0.40;;;7.20;99.90;7.00;102765.00;;;;5049079;28;20535;-68
2022/03/25 04:03:00;;;;;;;0.40;0.40;;;7.20;99.90;6.80;102759.00;;;;5051171;28;20260;-68
2022/03/25 04:05:33;;;;;;;0.40;0.40;;;7.20;99.90;7.10;102749.00;;;;5035172;28;20192;-69
2022/03/25 04:08:05;;;;;;;3.17;2.93;;;7.20;99.90;6.90;102758.00;;;;5050764;28;20614;-69
2022/03/25 04:10:40;;;;;;;0.40;0.40;;;7.30;99.90;6.90;102761.00;;;;5050035;28;20179;-68
2022/03/25 04:13:13;;;;;;;4.17;3.80;;;7.20;99.90;7.10;102756.00;;;;5033920;28;20203;-68
2022/03/25 04:15:44;;;;;;;0.30;0.30;;;7.30;99.90;7.20;102762.00;;;;5035490;28;20617;-68
2022/03/25 04:18:22;;;;;;;0.40;0.40;;;7.30;99.90;7.10;102762.00;;;;5051179;28;20542;-68
2022/03/25 04:20:56;;;;;;;3.43;3.00;;;7.30;99.90;7.50;102756.00;;;;5049843;28;20275;-68
2022/03/25 04:23:30;;;;;;;2.53;2.13;;;7.40;99.90;7.80;102741.00;;;;5050655;28;20230;-68
2022/03/25 04:26:04;;;;;;;0.60;0.60;;;7.70;99.90;7.60;102750.00;;;;5051094;28;20187;-68
2022/03/25 04:28:37;;;;;;;0.40;0.40;;;7.80;99.90;7.60;102757.00;;;;5050450;28;20165;-69
2022/03/25 04:31:09;;;;;;;0.50;0.50;;;7.80;99.90;8.10;102768.00;;;;5050201;28;20185;-68
2022/03/25 04:33:40;;;;;;;0.60;0.60;;;8.00;99.90;7.80;102734.00;;;;5034081;28;20180;-69
2022/03/25 04:36:10;;;;;;;1.17;1.17;;;8.10;99.90;8.20;102760.00;;;;5050175;28;20650;-69
2022/03/25 04:38:44;;;;;;;0.30;0.30;;;8.20;99.90;7.90;102754.00;;;;5049585;28;20219;-69
2022/03/25 04:41:10;;;;;;;2.63;2.53;;;8.10;99.90;8.30;102712.00;;;;5050032;28;20179;-70
2022/03/25 04:43:42;;;;;;;0.30;0.30;;;8.30;99.90;7.80;102755.00;;;;5033744;28;20188;-70
2022/03/25 04:46:11;;;;;;;0.37;0.37;;;8.20;99.90;7.30;102732.00;;;;5049906;28;20245;-69
2022/03/25 04:48:44;;;;;;;0.30;0.30;;;8.00;99.90;7.40;102712.00;;;;5048041;28;20180;-69
2022/03/25 04:51:19;;;;;;;4.73;2.43;;;7.80;99.90;7.70;102763.00;;;;5049100;28;20686;-68
2022/03/25 04:53:52;;;;;;;1.33;1.33;;;7.90;99.90;7.60;102756.00;;;;5049754;28;20255;-68
2022/03/25 04:56:29;;;;;;;0.50;0.50;;;7.90;99.90;7.50;102774.00;;;;5050084;28;20199;-68
2022/03/25 04:58:57;;;;;;;2.50;2.30;;;7.90;99.90;7.80;102771.00;;;;5048605;28;20186;-69
2022/03/25 05:01:26;;;;;;;0.30;0.30;;;8.00;99.90;7.30;102768.00;;;;5049040;28;20556;-69
2022/03/25 05:03:55;;;;;;;0.67;0.67;;;7.80;99.90;7.00;102766.00;;;;5034257;28;20331;-70
2022/03/25 05:06:27;;;;;;;0.40;0.40;;;7.60;99.90;7.20;102776.00;;;;5049782;28;20590;-69
2022/03/25 05:08:57;;;;;;;0.30;0.30;;;7.60;99.90;7.10;102769.00;;;;5049411;28;20196;-69
2022/03/25 05:11:26;;;;;;;8.30;7.57;;;7.60;99.90;6.80;102721.00;;;;5048437;28;20205;-70
2022/03/25 05:13:54;;;;;;;0.73;0.73;;;7.40;99.90;6.60;102766.00;;;;5048909;28;20736;-69
2022/03/25 05:16:24;;;;;;;2.07;1.90;;;7.20;99.90;6.10;102778.00;;;;5049694;28;20196;-68
2022/03/25 05:18:51;;;;;;;1.23;1.10;;;6.90;99.90;6.20;102774.00;;;;5032709;28;20174;-68
2022/03/25 05:21:25;;;;;;;0.40;0.40;;;6.80;99.90;6.40;102773.00;;;;5049891;28;20637;-69
2022/03/25 05:23:58;;;;;;;0.30;0.30;;;6.70;99.90;6.40;102774.00;;;;5048879;28;20185;-69
2022/03/25 05:26:29;;;;;;;0.70;0.70;;;6.70;99.90;6.40;102738.00;;;;5049909;28;20197;-68
2022/03/25 05:28:57;;;;;;;1.17;1.17;;;6.70;99.90;6.40;102784.00;;;;5049302;28;20266;-69
2022/03/25 05:31:31;;;;;;;0.53;0.53;;;6.60;99.90;6.40;102779.00;;;;5048918;28;20206;-69
2022/03/25 05:34:03;;;;;;;4.33;3.93;;;6.60;99.90;6.40;102783.00;;;;5031908;28;20624;-68
2022/03/25 05:36:32;;;;;;;0.30;0.30;;;6.60;99.90;6.50;102775.00;;;;5049323;28;20183;-68
2022/03/25 05:39:09;;;;;;;0.30;0.30;;;6.60;99.90;6.40;102778.00;;;;5042513;28;20192;-68
2022/03/25 05:41:49;;;;;;;0.90;0.90;;;6.60;99.90;6.20;102753.00;;;;5045333;28;20184;-68
2022/03/25 05:44:20;;;;;;;1.10;1.07;;;6.60;99.90;6.30;102739.00;;;;5012309;28;20165;-68
2022/03/25 05:46:54;;;;;;;0.30;0.30;;;6.60;99.90;6.40;102793.00;;;;5014052;28;20559;-68
2022/03/25 05:49:30;;;;;;;0.30;0.30;;;6.60;99.90;6.30;102785.00;;;;5012744;28;20248;-69
2022/03/25 05:52:05;;;;;;;0.40;0.40;;;6.60;99.90;6.00;102795.00;;;;5044395;28;20208;-69
2022/03/25 05:54:40;;;;;;;0.43;0.43;;;6.60;99.90;6.40;102801.00;;;;5012521;28;20227;-69
2022/03/25 05:57:14;;;;;;;0.40;0.40;;;6.60;99.90;6.60;102804.00;;;;5012404;28;20271;-69
2022/03/25 05:59:48;;;;;;;4.00;3.70;;;6.80;99.90;7.40;102807.00;;;;5012531;28;20556;-68
2022/03/25 06:02:19;;;;;;;1.80;1.80;;;7.30;99.90;7.60;102797.00;;;;5010083;28;20251;-68
2022/03/25 06:04:55;;;;;;;0.77;0.77;;;7.60;99.90;7.60;102750.00;;;;5012025;28;20260;-69
2022/03/25 06:07:34;;;;;;;3.90;3.60;;;7.80;99.90;8.00;102816.00;;;;5013759;28;20602;-68
2022/03/25 06:10:10;;;;;;;0.30;0.30;;;8.00;99.90;7.90;102810.00;;;;5043656;28;20185;-69
2022/03/25 06:12:44;;;;;;;1.80;1.80;;;8.20;99.90;8.30;102799.00;;;;5028259;28;20209;-69
2022/03/25 06:15:15;;;;;;;0.40;0.40;;;8.30;99.90;8.40;102819.00;;;;5028983;28;20185;-69
2022/03/25 06:17:55;;;;;;;1.67;1.60;;;8.50;99.90;8.90;102823.00;;;;5028476;28;20661;-68
2022/03/25 06:20:29;;;;;;;0.43;0.43;;;8.80;99.90;9.20;102809.00;;;;5013513;28;20183;-68
2022/03/25 06:23:00;;;;;;;0.90;0.90;;;9.10;99.90;9.50;102836.00;;;;5044888;28;20183;-68
2022/03/25 06:25:32;;;;;;;0.40;0.40;;;9.40;99.90;9.60;102834.00;;;;5012165;28;20529;-69
2022/03/25 06:28:04;;;;;;;0.40;0.40;;;9.60;99.90;9.80;102858.00;;;;5011937;28;20273;-69
2022/03/25 06:30:40;;;;;;;6.27;2.37;;;9.80;99.90;10.50;102865.00;;;;5011224;28;20259;-69
2022/03/25 06:33:11;;;;;;;0.40;0.40;;;10.20;99.90;10.90;102870.00;;;;5012191;28;20682;-69
2022/03/25 06:35:48;;;;;;;0.87;0.87;;;10.50;99.90;11.10;102891.00;;;;5011890;28;20178;-69
2022/03/25 06:38:24;;;;;;;0.30;0.30;;;10.90;99.90;11.40;102905.00;;;;5011346;28;20220;-69
2022/03/25 06:40:59;;;;;;;0.47;0.47;;;11.20;99.90;11.70;102909.00;;;;5011889;28;20182;-69
2022/03/25 06:43:31;;;;;;;0.63;0.63;;;11.50;99.90;12.40;102919.00;;;;5013029;28;20590;-70
2022/03/25 06:46:07;;;;;;;0.27;0.27;;;11.90;99.90;12.80;102943.00;;;;5012020;28;20182;-70
2022/03/25 06:48:39;;;;;;;1.37;1.33;;;12.40;99.90;13.50;102957.00;;;;5011840;28;20342;-70
2022/03/25 06:51:11;;;;;;;1.30;1.30;;;12.90;99.90;13.50;102972.00;;;;5027949;28;20208;-70
2022/03/25 06:53:44;;;;;;;0.63;0.63;;;13.10;99.90;14.00;102980.00;;;;5013583;28;20178;-70
2022/03/25 06:56:18;;;;;;;0.30;0.30;;;13.50;99.90;14.20;102979.00;;;;5016418;28;20203;-70
2022/03/25 06:58:52;;;;;;;3.00;2.90;;;14.00;99.90;14.40;102986.00;;;;5016269;28;20171;-70
2022/03/25 07:01:21;;;;;;;2.13;2.03;;;14.10;99.90;15.10;103011.00;;;;5015682;28;20215;-69
2022/03/25 07:03:53;;;;;;;0.50;0.50;;;14.60;99.90;15.40;103017.00;;;;5015017;28;20251;-67
2022/03/25 07:06:24;;;;;;;2.23;2.13;;;15.00;99.90;16.00;103020.00;;;;5015901;28;20292;-68
2022/03/25 07:09:03;;;;;;;1.30;1.30;;;15.40;99.90;14.70;103056.00;;;;5015010;28;20272;-68
2022/03/25 07:11:41;;;;;;;3.47;3.17;;;15.00;99.90;15.70;103065.00;;;;5031962;28;20684;-68
2022/03/25 07:14:09;;;;;;;2.93;2.73;;;15.30;99.90;15.80;103078.00;;;;5015844;28;20185;-67
2022/03/25 07:16:42;;;;;;;3.57;3.30;;;15.30;99.90;16.50;103093.00;;;;5016128;28;20189;-70
2022/03/25 07:19:09;;;;;;;0.77;0.77;;;15.80;99.90;16.90;103088.00;;;;5016941;28;20186;-69
2022/03/25 07:21:38;;;;;;;1.63;1.53;;;16.20;99.90;17.10;103080.00;;;;5016461;28;20190;-70
2022/03/25 07:24:11;;;;;;;0.70;0.70;;;16.60;99.90;16.40;103096.00;;;;5015535;28;20269;-68
2022/03/25 07:26:42;;;;;;;3.77;3.47;;;16.50;99.90;16.60;103091.00;;;;5015580;28;20176;-68
2022/03/25 07:29:14;;;;;;;2.90;2.70;;;16.30;99.90;14.20;103091.00;;;;5015988;28;20188;-68
2022/03/25 07:31:45;;;;;;;0.40;0.40;;;15.30;99.90;14.30;103073.00;;;;5013854;28;20550;-69
2022/03/25 07:34:19;;;;;;;0.73;0.67;;;14.70;99.90;15.90;103070.00;;;;5014836;28;20184;-68
2022/03/25 07:36:55;;;;;;;2.47;2.23;;;15.20;99.90;16.30;103083.00;;;;5015876;28;20179;-69
2022/03/25 07:39:28;;;;;;;2.97;2.77;;;15.70;99.90;16.40;103106.00;;;;5014982;28;20194;-68
2022/03/25 07:42:02;;;;;;;3.50;1.70;;;15.80;99.90;16.00;103110.00;;;;5014510;28;20202;-68
2022/03/25 07:44:34;;;;;;;1.47;1.47;;;15.90;99.90;16.30;103117.00;;;;5015243;28;20223;-68
2022/03/25 07:47:13;;;;;;;0.50;0.50;;;15.90;99.90;17.20;103121.00;;;;5031621;28;20181;-69
2022/03/25 07:49:47;;;;;;;1.27;1.27;;;16.60;99.90;16.30;103116.00;;;;5014206;28;20181;-70
2022/03/25 07:52:23;;;;;;;22.83;2.03;;;16.50;99.90;15.90;103117.00;;;;5014650;28;20198;-70
2022/03/25 07:55:00;;;;;;;1.23;1.13;;;15.70;99.90;16.10;103074.00;;;;5015409;28;20179;-71
2022/03/25 07:57:37;;;;;;;1.00;1.00;;;16.00;99.90;14.50;103125.00;;;;5013681;28;20190;-70
2022/03/25 08:00:11;;;;;;;3.90;3.63;;;14.90;99.90;14.80;103113.00;;;;5022930;28;20241;-70
2022/03/25 08:02:52;;;;;;;6.13;4.17;;;15.10;99.90;16.10;103122.00;;;;5030761;28;20226;-71
2022/03/25 08:05:25;;;;;;;1.03;1.03;;;15.40;99.90;17.10;103128.00;;;;5034216;28;20186;-70
2022/03/25 08:08:02;;;;;;;0.67;0.67;;;16.30;99.90;17.20;103132.00;;;;5034211;28;20948;-70
2022/03/25 08:10:40;;;;;;;1.60;1.13;;;16.80;99.90;17.30;103075.00;;;;5034242;28;20628;-70
2022/03/25 08:13:11;;;;;;;7.63;4.43;;;16.90;99.90;14.00;103034.00;;;;5034429;28;20277;-70
2022/03/25 08:15:45;;;;;;;0.20;0.20;;;15.30;99.90;14.20;103032.00;;;;5033607;28;20202;-70
2022/03/25 08:18:23;;;;;;;0.67;0.67;;;14.70;99.90;14.60;103011.00;;;;5032833;28;20722;-70
2022/03/25 08:21:01;;;;;;;2.20;2.00;;;15.00;99.90;15.30;103026.00;;;;5032682;28;20181;-70
2022/03/25 08:29:16;;;;;;;15.67;8.20;;;15.60;99.90;14.30;103037.00;;;;5026651;28;20210;-70
2022/03/25 08:31:50;;;;;;;9.70;2.60;;;15.30;99.90;16.20;103037.00;;;;5027087;28;20228;-70
2022/03/25 08:34:22;;;;;;;5.57;3.07;;;15.50;99.90;14.30;103044.00;;;;5034821;28;20558;-70
2022/03/25 08:36:56;;;;;;;5.70;5.07;;;15.10;99.90;13.90;103048.00;;;;5017271;28;20196;-70
2022/03/25 08:39:28;;;;;;;5.17;4.00;;;14.50;99.90;14.20;103050.00;;;;5033923;28;20191;-70
2022/03/25 08:42:02;;;;;;;11.20;3.90;;;14.30;99.90;13.50;103052.00;;;;5033391;28;20223;-70
2022/03/25 08:44:41;;;;;;;1.70;1.67;;;14.10;99.90;15.30;103032.00;;;;5033908;28;20720;-70
2022/03/25 08:47:18;;;;;;;6.17;4.97;;;14.80;99.90;14.70;103057.00;;;;5017565;28;20551;-70
2022/03/25 08:49:48;;;;;;;0.47;0.47;;;15.10;99.90;15.60;103048.00;;;;5035403;28;20184;-70
2022/03/25 08:52:22;;;;;;;3.63;3.43;;;15.50;99.90;16.40;103043.00;;;;5032775;28;20655;-70
2022/03/25 08:54:51;;;;;;;5.27;4.80;;;15.90;99.90;15.70;103012.00;;;;5033255;28;20197;-70
2022/03/25 08:57:20;;;;;;;11.77;6.03;;;15.80;99.90;14.60;103054.00;;;;5034133;28;20176;-71
2022/03/25 08:59:50;;;;;;;3.40;2.30;;;15.40;99.90;15.50;103047.00;;;;5034669;28;20232;-71
2022/03/25 09:02:27;;;;;;;1.57;1.57;;;15.50;99.90;15.20;103005.00;;;;5033320;28;20216;-71
2022/03/25 09:05:04;;;;;;;6.23;4.30;;;15.50;99.90;15.80;103033.00;;;;5033081;28;20162;-69
2022/03/25 09:07:43;;;;;;;5.27;3.17;;;15.80;99.90;14.80;103056.00;;;;5016315;28;20180;-69
2022/03/25 09:10:14;;;;;;;3.33;3.03;;;15.50;99.90;15.90;103038.00;;;;5015315;28;20183;-70
2022/03/25 09:12:49;;;;;;;7.00;5.60;;;15.70;99.90;14.20;103058.00;;;;5033318;28;20191;-69
2022/03/25 09:15:17;;;;;;;16.37;2.57;;;15.00;99.90;15.30;103047.00;;;;5017154;28;20221;-69
2022/03/25 09:17:48;;;;;;;2.13;2.00;;;15.20;99.90;14.90;103063.00;;;;5031103;28;20178;-69
2022/03/25 09:20:20;;;;;;;8.07;4.17;;;15.10;99.90;14.70;103060.00;;;;5032778;28;20172;-70
2022/03/25 09:22:54;;;;;;;7.73;4.73;;;15.00;99.90;14.60;103053.00;;;;5032296;28;20211;-71
2022/03/25 09:25:32;;;;;;;2.37;2.30;;;15.10;99.90;15.10;103044.00;;;;5017954;28;20609;-72
2022/03/25 09:28:12;;;;;;;8.33;6.13;;;15.30;99.90;14.70;103072.00;;;;5031653;28;20266;-69
2022/03/25 09:30:40;;;;;;;2.87;2.33;;;15.30;99.90;15.10;103062.00;;;;5032758;28;20185;-70
2022/03/25 09:33:29;;;;;;;2.03;1.87;;;15.30;99.90;14.80;103072.00;;;;5032272;28;20291;-70
2022/03/25 09:36:04;;;;;;;9.77;5.07;;;15.20;99.90;14.90;103067.00;;;;5033655;28;20209;-66
2022/03/25 09:38:33;;;;;;;2.53;1.80;;;15.40;99.90;16.00;103020.00;;;;5015940;28;20686;-67
2022/03/25 09:41:06;;;;;;;4.30;3.53;;;15.50;99.90;15.90;103060.00;;;;5014867;28;20181;-68
2022/03/25 09:43:34;;;;;;;14.17;13.40;;;16.10;99.90;16.80;103047.00;;;;5032215;28;20580;-69
2022/03/25 09:46:07;;;;;;;2.50;1.67;;;16.50;99.90;16.50;103048.00;;;;5032759;28;20601;-68
2022/03/25 09:48:41;;;;;;;6.90;5.50;;;16.90;98.90;15.50;103044.00;;;;5015883;28;20186;-69
2022/03/25 09:51:13;;;;;;;2.40;2.30;;;16.30;99.60;15.70;103032.00;;;;5033288;28;20184;-70
2022/03/25 09:53:47;;;;;;;10.93;4.30;;;15.90;99.90;16.30;103020.00;;;;5032366;28;20186;-69
2022/03/25 09:56:20;;;;;;;4.67;3.80;;;16.20;99.90;16.80;103053.00;;;;5016001;28;20836;-69
2022/03/25 09:58:55;;;;;;;7.20;3.80;;;16.70;98.80;15.40;103056.00;;;;5015810;28;20553;-71
2022/03/25 10:01:30;;;;;;;2.37;1.07;;;16.20;99.20;16.80;103047.00;;;;5015510;28;20193;-70
2022/03/25 10:04:00;;;;;;;7.53;5.20;;;16.40;99.90;15.90;103050.00;;;;5031884;28;20206;-72
2022/03/25 10:06:26;;;;;;;2.60;2.40;;;16.30;98.80;15.60;103010.00;;;;5032585;28;20209;-70
2022/03/25 10:09:02;;;;;;;8.20;5.77;;;16.10;99.10;16.10;103066.00;;;;5015608;28;20186;-70
2022/03/25 10:11:36;;;;;;;4.57;4.27;;;16.30;98.60;16.80;103055.00;;;;5031412;28;20265;-71
2022/03/25 10:14:27;;;;;;;5.60;5.13;;;16.70;98.20;16.30;103050.00;;;;5015901;28;20635;-72
2022/03/25 10:16:54;;;;;;;0.63;0.63;;;16.70;97.40;16.80;103048.00;;;;5032183;28;20264;-71
2022/03/25 10:19:25;;;;;;;7.10;4.17;;;16.80;96.90;16.60;103045.00;;;;5032237;28;20210;-71
2022/03/25 10:33:43;;;;;;;12.57;5.90;;;17.40;95.50;17.10;103041.00;;;;5111513;27;1330863;-71
2022/03/25 10:36:19;;;;;;;10.73;5.80;;;17.20;95.30;17.40;103036.00;;;;5130819;28;20183;-72
2022/03/25 10:39:01;;;;;;;6.17;5.57;;;17.70;94.70;17.40;103029.00;;;;5131478;27;20168;-74
2022/03/25 10:41:49;;;;;;;5.80;3.80;;;17.50;95.00;17.90;103026.00;;;;5113725;28;20180;-72
2022/03/25 10:44:34;;;;;;;8.63;5.67;;;17.80;94.10;17.30;103027.00;;;;5113954;28;20509;-73
2022/03/25 10:47:24;;;;;;;9.23;6.70;;;18.00;93.20;16.90;103028.00;;;;5129960;28;20212;-72
2022/03/25 10:49:53;;;;;;;7.73;4.50;;;17.20;93.60;17.00;103035.00;;;;5129937;28;20263;-73
2022/03/25 10:52:36;;;;;;;5.07;4.17;;;17.30;93.80;17.60;103024.00;;;;5129796;28;20536;-73
2022/03/25 10:55:23;;;;;;;10.37;5.27;;;17.40;93.80;18.50;103018.00;;;;5113208;28;20182;-73
2022/03/25 10:57:55;;;;;;;6.18;4.57;;;18.00;92.90;17.70;103030.00;;;;5128228;28;20181;-75
2022/03/25 11:00:33;;;;;;;4.05;3.13;;;18.10;91.00;17.20;103022.00;;;;5129487;28;20179;-74
2022/03/25 11:02:59;;;;;;;12.07;10.83;;;17.70;89.00;17.20;102976.00;;;;5113070;28;20206;-74
2022/03/25 11:05:25;;;;;;;1.93;1.83;;;17.50;87.80;18.30;103014.00;;;;5129745;28;20629;-74
2022/03/25 11:07:52;;;;;;;12.00;7.37;;;17.90;90.60;17.90;102987.00;;;;5129718;28;20174;-74
2022/03/25 11:10:18;;;;;;;7.90;4.43;;;18.00;89.20;16.70;103022.00;;;;5129353;28;20194;-72
2022/03/25 11:12:50;;;;;;;5.73;3.07;;;17.60;84.30;17.10;103017.00;;;;5112170;28;20193;-72
2022/03/25 11:15:19;;;;;;;11.05;4.93;;;17.30;86.00;17.20;103013.00;;;;5112682;28;20235;-71
2022/03/25 11:17:48;;;;;;;1.92;1.80;;;17.40;86.90;18.10;103008.00;;;;5130211;27;20171;-73
2022/03/25 11:20:24;;;;;;;10.75;6.18;;;17.90;87.80;19.40;103013.00;;;;5129582;28;20171;-74
2022/03/25 11:23:05;;;;;;;8.90;5.13;;;18.70;87.20;18.50;103000.00;;;;5129553;28;20182;-72
2022/03/25 11:25:36;;;;;;;7.28;4.05;;;18.90;80.40;17.10;103008.00;;;;5130634;27;20284;-74
2022/03/25 11:28:32;;;;;;;6.25;4.93;;;17.80;79.70;17.20;103004.00;;;;5129710;27;20203;-70
2022/03/25 11:31:07;;;;;;;2.10;1.90;;;17.50;82.80;17.00;102999.00;;;;5121351;28;20648;-71
2022/03/25 11:34:26;;;;;;;4.63;3.40;;;17.40;82.70;17.60;102988.00;;;;5128914;28;20188;-72
2022/03/25 11:37:28;;;;;;;1.70;1.60;;;17.60;81.70;18.40;102989.00;;;;5132892;28;20204;-74
2022/03/25 11:40:14;;;;;;;5.03;3.60;;;18.30;81.70;19.40;102977.00;;;;5141142;28;20198;-69
2022/03/25 11:42:45;;;;;;;1.38;1.30;;;18.90;81.60;19.40;102945.00;;;;5145831;28;20187;-76